sensor_id;sensor_type;location;lat;lon;timestamp;pressure;altitude;pressure_sealevel;temperature;humidity
19576;BME280;41589;51.196;7.074;2023-02-13T00:00:15;101021.47;;;9.16;100.00
19576;BME280;41589;51.196;7.074;2023-02-13T00:05:16;101012.66;;;9.10;100.00
19576;BME280;41589;51.196;7.074;2023-02-13T00:10:17;101009.06;;;9.10;100.00
19576;BME280;41589;51.196;7.074;2023-02-13T00:15:17;101004.25;;;9.03;100.00
19576;BME280;41589;51.196;7.074;2023-02-13T00:20:17;101003.06;;;8.93;100.00
19576;BME280;41589;51.196;7.074;2023-02-13T00:25:18;101001.06;;;9.01;100.00
19576;BME280;41589;51.196;7.074;2023-02-13T00:30:19;101003.81;;;9.12;100.00
19576;BME280;41589;51.196;7.074;2023-02-13T00:35:20;101000.19;;;9.15;100.00
19576;BME280;41589;51.196;7.074;2023-02-13T00:40:21;100998.66;;;8.99;100.00
19576;BME280;41589;51.196;7.074;2023-02-13T00:45:21;100997.84;;;8.99;100.00
19576;BME280;41589;51.196;7.074;2023-02-13T00:50:21;100990.69;;;8.84;100.00
19576;BME280;41589;51.196;7.074;2023-02-13T00:55:22;100984.31;;;8.69;100.00
19576;BME280;41589;51.196;7.074;2023-02-13T01:00:22;100982.31;;;8.59;100.00
19576;BME280;41589;51.196;7.074;2023-02-13T01:05:22;100988.34;;;8.61;100.00
19576;BME280;41589;51.196;7.074;2023-02-13T01:10:23;100985.53;;;8.61;100.00
19576;BME280;41589;51.196;7.074;2023-02-13T01:15:24;100990.38;;;8.53;100.00
19576;BME280;41589;51.196;7.074;2023-02-13T01:20:24;100981.94;;;8.53;100.00
19576;BME280;41589;51.196;7.074;2023-02-13T01:25:25;100982.75;;;8.54;100.00
19576;BME280;41589;51.196;7.074;2023-02-13T01:30:27;100981.13;;;8.60;100.00
19576;BME280;41589;51.196;7.074;2023-02-13T01:35:29;100972.31;;;8.54;100.00
19576;BME280;41589;51.196;7.074;2023-02-13T01:40:29;100990.34;;;8.57;100.00
19576;BME280;41589;51.196;7.074;2023-02-13T01:45:30;100975.13;;;8.51;100.00
19576;BME280;41589;51.196;7.074;2023-02-13T01:56:12;100971.16;;;8.34;100.00
19576;BME280;41589;51.196;7.074;2023-02-13T02:01:14;100970.72;;;8.39;100.00
19576;BME280;41589;51.196;7.074;2023-02-13T02:06:22;100971.09;;;8.59;100.00
19576;BME280;41589;51.196;7.074;2023-02-13T02:11:30;100971.50;;;8.64;100.00
19576;BME280;41589;51.196;7.074;2023-02-13T02:16:34;100970.25;;;8.73;100.00
19576;BME280;41589;51.196;7.074;2023-02-13T02:21:52;100977.91;;;8.65;100.00
19576;BME280;41589;51.196;7.074;2023-02-13T02:32:32;100975.53;;;8.31;100.00
19576;BME280;41589;51.196;7.074;2023-02-13T02:42:56;100968.72;;;8.50;100.00
19576;BME280;41589;51.196;7.074;2023-02-13T02:48:08;100966.72;;;8.44;100.00
19576;BME280;41589;51.196;7.074;2023-02-13T02:58:51;100967.56;;;8.26;100.00
19576;BME280;41589;51.196;7.074;2023-02-13T03:09:47;100959.53;;;8.35;100.00
19576;BME280;41589;51.196;7.074;2023-02-13T03:15:08;100963.13;;;8.39;100.00
19576;BME280;41589;51.196;7.074;2023-02-13T03:20:30;100961.94;;;8.26;100.00
19576;BME280;41589;51.196;7.074;2023-02-13T03:31:25;100963.94;;;8.29;100.00
19576;BME280;41589;51.196;7.074;2023-02-13T03:42:01;100959.47;;;8.50;100.00
19576;BME280;41589;51.196;7.074;2023-02-13T03:47:05;100960.69;;;8.49;100.00
19576;BME280;41589;51.196;7.074;2023-02-13T03:52:23;100956.31;;;8.37;100.00
19576;BME280;41589;51.196;7.074;2023-02-13T03:57:27;100956.31;;;8.37;100.00
19576;BME280;41589;51.196;7.074;2023-02-13T04:03:02;100962.72;;;8.30;100.00
19576;BME280;41589;51.196;7.074;2023-02-13T04:08:05;100972.75;;;8.38;100.00
19576;BME280;41589;51.196;7.074;2023-02-13T04:18:27;100972.34;;;8.44;100.00
19576;BME280;41589;51.196;7.074;2023-02-13T04:23:29;100964.72;;;8.40;100.00
19576;BME280;41589;51.196;7.074;2023-02-13T04:28:29;100968.75;;;8.25;100.00
19576;BME280;41589;51.196;7.074;2023-02-13T04:33:29;100967.94;;;8.35;100.00
19576;BME280;41589;51.196;7.074;2023-02-13T04:38:30;100955.50;;;8.44;100.00
19576;BME280;41589;51.196;7.074;2023-02-13T04:43:30;100966.75;;;8.29;100.00
19576;BME280;41589;51.196;7.074;2023-02-13T04:48:30;100963.16;;;8.25;100.00
19576;BME280;41589;51.196;7.074;2023-02-13T04:53:30;100958.31;;;8.36;100.00
19576;BME280;41589;51.196;7.074;2023-02-13T04:58:31;100962.34;;;8.28;100.00
19576;BME280;41589;51.196;7.074;2023-02-13T05:03:31;100959.53;;;8.35;100.00
19576;BME280;41589;51.196;7.074;2023-02-13T05:08:32;100960.31;;;8.29;100.00
19576;BME280;41589;51.196;7.074;2023-02-13T05:13:33;100964.31;;;8.31;100.00
19576;BME280;41589;51.196;7.074;2023-02-13T05:18:33;100961.13;;;8.44;100.00
19576;BME280;41589;51.196;7.074;2023-02-13T05:23:34;100961.09;;;8.40;100.00
19576;BME280;41589;51.196;7.074;2023-02-13T05:28:34;100959.91;;;8.48;100.00
19576;BME280;41589;51.196;7.074;2023-02-13T05:33:53;100961.53;;;8.31;100.00
19576;BME280;41589;51.196;7.074;2023-02-13T05:38:53;100959.16;;;8.23;100.00
19576;BME280;41589;51.196;7.074;2023-02-13T05:43:53;100961.13;;;8.08;100.00
19576;BME280;41589;51.196;7.074;2023-02-13T05:48:54;100960.31;;;8.15;100.00
19576;BME280;41589;51.196;7.074;2023-02-13T05:53:54;100953.91;;;8.10;100.00
19576;BME280;41589;51.196;7.074;2023-02-13T05:58:54;100961.91;;;8.08;100.00
19576;BME280;41589;51.196;7.074;2023-02-13T06:03:55;100957.50;;;8.00;100.00
19576;BME280;41589;51.196;7.074;2023-02-13T06:08:55;100962.72;;;7.88;100.00
19576;BME280;41589;51.196;7.074;2023-02-13T06:13:56;100963.53;;;7.88;100.00
19576;BME280;41589;51.196;7.074;2023-02-13T06:18:56;100950.72;;;7.91;100.00
19576;BME280;41589;51.196;7.074;2023-02-13T06:23:57;100963.13;;;7.75;100.00
19576;BME280;41589;51.196;7.074;2023-02-13T06:28:57;100961.94;;;7.73;100.00
19576;BME280;41589;51.196;7.074;2023-02-13T06:33:57;100961.09;;;7.69;100.00
19576;BME280;41589;51.196;7.074;2023-02-13T06:38:58;100971.13;;;7.66;100.00
19576;BME280;41589;51.196;7.074;2023-02-13T06:43:59;100962.72;;;7.63;100.00
19576;BME280;41589;51.196;7.074;2023-02-13T06:48:59;100953.09;;;7.53;100.00
19576;BME280;41589;51.196;7.074;2023-02-13T06:53:59;100951.06;;;7.46;100.00
19576;BME280;41589;51.196;7.074;2023-02-13T06:59:00;100953.06;;;7.46;100.00
19576;BME280;41589;51.196;7.074;2023-02-13T07:04:00;100959.88;;;7.41;100.00
19576;BME280;41589;51.196;7.074;2023-02-13T07:09:02;100965.47;;;7.34;100.00
19576;BME280;41589;51.196;7.074;2023-02-13T07:14:05;100962.66;;;7.31;100.00
19576;BME280;41589;51.196;7.074;2023-02-13T07:19:06;100958.66;;;7.32;100.00
19576;BME280;41589;51.196;7.074;2023-02-13T07:24:06;100966.25;;;7.35;100.00
19576;BME280;41589;51.196;7.074;2023-02-13T07:29:07;100970.25;;;7.30;100.00
19576;BME280;41589;51.196;7.074;2023-02-13T07:34:07;100967.84;;;7.32;100.00
19576;BME280;41589;51.196;7.074;2023-02-13T07:39:07;100967.47;;;7.37;100.00
19576;BME280;41589;51.196;7.074;2023-02-13T07:44:08;100963.06;;;7.47;100.00
19576;BME280;41589;51.196;7.074;2023-02-13T07:49:08;100964.31;;;7.49;100.00
19576;BME280;41589;51.196;7.074;2023-02-13T07:54:08;100979.13;;;7.61;100.00
19576;BME280;41589;51.196;7.074;2023-02-13T07:59:09;100971.91;;;7.56;100.00
19576;BME280;41589;51.196;7.074;2023-02-13T08:04:10;100977.53;;;7.67;100.00
19576;BME280;41589;51.196;7.074;2023-02-13T08:09:18;100973.53;;;7.75;100.00
19576;BME280;41589;51.196;7.074;2023-02-13T08:14:37;100971.56;;;7.93;100.00
19576;BME280;41589;51.196;7.074;2023-02-13T08:19:38;100967.94;;;8.00;100.00
19576;BME280;41589;51.196;7.074;2023-02-13T08:24:38;100968.34;;;8.12;100.00
19576;BME280;41589;51.196;7.074;2023-02-13T08:29:38;100975.56;;;8.24;100.00
19576;BME280;41589;51.196;7.074;2023-02-13T08:34:39;100975.53;;;8.38;100.00
19576;BME280;41589;51.196;7.074;2023-02-13T08:39:39;100981.53;;;8.55;100.00
19576;BME280;41589;51.196;7.074;2023-02-13T08:44:40;100979.47;;;8.73;100.00
19576;BME280;41589;51.196;7.074;2023-02-13T08:49:41;100977.03;;;8.82;100.00
19576;BME280;41589;51.196;7.074;2023-02-13T08:54:42;100968.94;;;9.06;100.00
19576;BME280;41589;51.196;7.074;2023-02-13T08:59:42;100974.09;;;9.14;100.00
19576;BME280;41589;51.196;7.074;2023-02-13T09:04:43;100973.13;;;9.46;100.00
19576;BME280;41589;51.196;7.074;2023-02-13T09:09:43;100971.16;;;9.43;100.00
19576;BME280;41589;51.196;7.074;2023-02-13T09:14:43;100978.09;;;9.87;100.00
19576;BME280;41589;51.196;7.074;2023-02-13T09:19:44;100983.13;;;10.13;100.00
19576;BME280;41589;51.196;7.074;2023-02-13T09:24:46;100981.63;;;10.01;100.00
19576;BME280;41589;51.196;7.074;2023-02-13T09:29:46;100979.84;;;10.22;100.00
19576;BME280;41589;51.196;7.074;2023-02-13T09:34:46;100981.97;;;10.52;100.00
19576;BME280;41589;51.196;7.074;2023-02-13T09:39:47;100972.03;;;10.78;100.00
19576;BME280;41589;51.196;7.074;2023-02-13T09:44:47;100971.97;;;10.81;100.00
19576;BME280;41589;51.196;7.074;2023-02-13T09:49:54;100966.19;;;10.95;100.00
19576;BME280;41589;51.196;7.074;2023-02-13T09:54:56;100969.84;;;11.26;100.00
19576;BME280;41589;51.196;7.074;2023-02-13T10:00:20;100976.41;;;11.47;100.00
19576;BME280;41589;51.196;7.074;2023-02-13T10:16:00;100981.81;;;12.38;100.00
19576;BME280;41589;51.196;7.074;2023-02-13T10:21:02;100981.94;;;12.55;100.00
19576;BME280;41589;51.196;7.074;2023-02-13T10:26:07;100980.38;;;12.73;100.00
19576;BME280;41589;51.196;7.074;2023-02-13T10:31:16;100996.19;;;12.91;100.00
19576;BME280;41589;51.196;7.074;2023-02-13T10:36:25;100984.56;;;13.25;100.00
19576;BME280;41589;51.196;7.074;2023-02-13T10:46:49;100978.19;;;13.93;100.00
19576;BME280;41589;51.196;7.074;2023-02-13T10:52:02;100985.44;;;14.27;100.00
19576;BME280;41589;51.196;7.074;2023-02-13T10:57:14;100984.38;;;14.37;93.90
19576;BME280;41589;51.196;7.074;2023-02-13T11:02:26;100982.69;;;14.39;92.02
19576;BME280;41589;51.196;7.074;2023-02-13T11:07:27;100977.25;;;14.61;89.91
19576;BME280;41589;51.196;7.074;2023-02-13T11:12:31;100957.47;;;14.74;87.15
19576;BME280;41589;51.196;7.074;2023-02-13T11:17:39;100956.47;;;15.10;90.67
19576;BME280;41589;51.196;7.074;2023-02-13T11:22:41;100948.34;;;15.50;88.34
19576;BME280;41589;51.196;7.074;2023-02-13T11:27:42;100939.25;;;15.68;85.72
19576;BME280;41589;51.196;7.074;2023-02-13T11:32:55;100939.38;;;15.89;88.91
19576;BME280;41589;51.196;7.074;2023-02-13T11:38:10;100937.69;;;16.05;85.29
19576;BME280;41589;51.196;7.074;2023-02-13T11:43:22;100930.63;;;16.09;83.01
19576;BME280;41589;51.196;7.074;2023-02-13T11:48:24;100918.88;;;16.20;80.10
19576;BME280;41589;51.196;7.074;2023-02-13T11:53:28;100928.69;;;16.41;82.60
19576;BME280;41589;51.196;7.074;2023-02-13T11:58:29;100921.91;;;16.60;78.40
19576;BME280;41589;51.196;7.074;2023-02-13T12:03:30;100904.53;;;16.58;77.03
19576;BME280;41589;51.196;7.074;2023-02-13T12:08:36;100907.66;;;16.73;77.40
19576;BME280;41589;51.196;7.074;2023-02-13T12:13:37;100904.03;;;16.94;77.45
19576;BME280;41589;51.196;7.074;2023-02-13T12:18:44;100899.81;;;16.99;76.55
19576;BME280;41589;51.196;7.074;2023-02-13T12:24:03;100889.28;;;17.09;78.63
19576;BME280;41589;51.196;7.074;2023-02-13T12:34:54;100879.41;;;17.00;74.64
19576;BME280;41589;51.196;7.074;2023-02-13T12:40:17;100882.38;;;17.19;74.08
19576;BME280;41589;51.196;7.074;2023-02-13T12:56:17;100862.69;;;16.59;72.23
19576;BME280;41589;51.196;7.074;2023-02-13T13:01:49;100862.78;;;16.33;70.96
19576;BME280;41589;51.196;7.074;2023-02-13T13:18:04;100852.53;;;15.67;69.66
19576;BME280;41589;51.196;7.074;2023-02-13T13:23:17;100843.78;;;15.61;69.37
19576;BME280;41589;51.196;7.074;2023-02-13T13:28:22;100840.94;;;15.61;70.33
19576;BME280;41589;51.196;7.074;2023-02-13T13:33:25;100841.28;;;15.50;69.89
19576;BME280;41589;51.196;7.074;2023-02-13T13:38:38;100842.44;;;15.53;72.39
19576;BME280;41589;51.196;7.074;2023-02-13T13:44:13;100833.66;;;15.60;74.06
19576;BME280;41589;51.196;7.074;2023-02-13T13:49:18;100832.78;;;15.50;70.81
19576;BME280;41589;51.196;7.074;2023-02-13T13:54:32;100830.53;;;15.45;72.00
19576;BME280;41589;51.196;7.074;2023-02-13T14:04:37;100816.00;;;15.43;69.19
19576;BME280;41589;51.196;7.074;2023-02-13T14:09:42;100814.84;;;15.53;69.39
19576;BME280;41589;51.196;7.074;2023-02-13T14:14:43;100808.50;;;15.49;68.00
19576;BME280;41589;51.196;7.074;2023-02-13T14:19:50;100803.75;;;15.46;70.46
19576;BME280;41589;51.196;7.074;2023-02-13T14:24:51;100814.63;;;15.48;66.23
19576;BME280;41589;51.196;7.074;2023-02-13T14:29:53;100804.84;;;15.49;67.35
19576;BME280;41589;51.196;7.074;2023-02-13T14:34:57;100803.16;;;15.64;68.37
19576;BME280;41589;51.196;7.074;2023-02-13T14:45:19;100810.06;;;15.76;65.72
19576;BME280;41589;51.196;7.074;2023-02-13T14:50:49;100808.66;;;15.93;70.88
19576;BME280;41589;51.196;7.074;2023-02-13T14:55:55;100813.28;;;16.00;65.71
19576;BME280;41589;51.196;7.074;2023-02-13T15:01:01;100802.31;;;16.11;65.25
19576;BME280;41589;51.196;7.074;2023-02-13T15:06:26;100802.66;;;16.13;62.15
19576;BME280;41589;51.196;7.074;2023-02-13T15:11:35;100796.41;;;16.18;63.16
19576;BME280;41589;51.196;7.074;2023-02-13T15:16:39;100792.28;;;16.19;60.76
19576;BME280;41589;51.196;7.074;2023-02-13T15:21:46;100791.09;;;16.29;62.74
19576;BME280;41589;51.196;7.074;2023-02-13T15:26:55;100796.66;;;16.33;62.19
19576;BME280;41589;51.196;7.074;2023-02-13T15:31:58;100787.34;;;16.32;61.55
19576;BME280;41589;51.196;7.074;2023-02-13T15:37:00;100790.56;;;16.00;58.35
19576;BME280;41589;51.196;7.074;2023-02-13T15:42:01;100788.00;;;15.80;57.94
19576;BME280;41589;51.196;7.074;2023-02-13T15:47:08;100784.44;;;15.54;57.13
19576;BME280;41589;51.196;7.074;2023-02-13T15:52:27;100777.72;;;15.48;60.27
19576;BME280;41589;51.196;7.074;2023-02-13T15:57:32;100783.44;;;15.35;57.78
19576;BME280;41589;51.196;7.074;2023-02-13T16:02:41;100769.50;;;15.15;57.34
19576;BME280;41589;51.196;7.074;2023-02-13T16:07:50;100780.84;;;15.15;58.99
19576;BME280;41589;51.196;7.074;2023-02-13T16:12:51;100789.94;;;15.10;58.82
19576;BME280;41589;51.196;7.074;2023-02-13T16:17:52;100776.78;;;14.91;57.78
19576;BME280;41589;51.196;7.074;2023-02-13T16:22:57;100778.56;;;14.85;58.55
19576;BME280;41589;51.196;7.074;2023-02-13T16:28:22;100780.75;;;14.81;58.65
19576;BME280;41589;51.196;7.074;2023-02-13T16:38:33;100783.97;;;14.66;58.84
19576;BME280;41589;51.196;7.074;2023-02-13T16:48:35;100782.47;;;14.36;58.51
19576;BME280;41589;51.196;7.074;2023-02-13T16:53:37;100786.13;;;14.21;58.06
19576;BME280;41589;51.196;7.074;2023-02-13T16:58:38;100801.22;;;14.01;57.74
19576;BME280;41589;51.196;7.074;2023-02-13T17:03:38;100789.50;;;13.86;57.77
19576;BME280;41589;51.196;7.074;2023-02-13T17:08:39;100794.03;;;13.84;57.96
19576;BME280;41589;51.196;7.074;2023-02-13T17:13:39;100806.06;;;13.72;57.66
19576;BME280;41589;51.196;7.074;2023-02-13T17:18:40;100813.97;;;13.64;57.53
19576;BME280;41589;51.196;7.074;2023-02-13T17:23:40;100817.28;;;13.59;56.75
19576;BME280;41589;51.196;7.074;2023-02-13T17:28:40;100819.25;;;13.46;56.93
19576;BME280;41589;51.196;7.074;2023-02-13T17:33:41;100818.78;;;13.31;56.40
19576;BME280;41589;51.196;7.074;2023-02-13T17:38:42;100808.34;;;13.28;56.73
19576;BME280;41589;51.196;7.074;2023-02-13T17:43:42;100817.00;;;13.21;56.02
19576;BME280;41589;51.196;7.074;2023-02-13T17:48:43;100806.75;;;13.11;55.96
19576;BME280;41589;51.196;7.074;2023-02-13T17:53:43;100813.03;;;13.02;55.84
19576;BME280;41589;51.196;7.074;2023-02-13T17:58:43;100824.47;;;12.95;55.62
19576;BME280;41589;51.196;7.074;2023-02-13T18:03:44;100828.47;;;12.97;55.40
19576;BME280;41589;51.196;7.074;2023-02-13T18:08:44;100808.47;;;12.88;55.41
19576;BME280;41589;51.196;7.074;2023-02-13T18:13:44;100815.16;;;12.78;55.48
19576;BME280;41589;51.196;7.074;2023-02-13T18:18:47;100821.00;;;12.71;55.48
19576;BME280;41589;51.196;7.074;2023-02-13T18:23:51;100815.13;;;12.62;55.87
19576;BME280;41589;51.196;7.074;2023-02-13T18:28:52;100823.75;;;12.55;55.82
19576;BME280;41589;51.196;7.074;2023-02-13T18:33:53;100823.22;;;12.40;55.32
19576;BME280;41589;51.196;7.074;2023-02-13T18:38:53;100825.25;;;12.39;55.53
19576;BME280;41589;51.196;7.074;2023-02-13T18:43:56;100821.47;;;12.26;55.31
19576;BME280;41589;51.196;7.074;2023-02-13T18:48:57;100819.06;;;12.25;55.78
19576;BME280;41589;51.196;7.074;2023-02-13T18:53:57;100824.50;;;12.15;55.92
19576;BME280;41589;51.196;7.074;2023-02-13T18:58:59;100825.38;;;12.12;56.07
19576;BME280;41589;51.196;7.074;2023-02-13T19:04:00;100825.22;;;12.00;55.93
19576;BME280;41589;51.196;7.074;2023-02-13T19:09:00;100831.53;;;11.84;56.60
19576;BME280;41589;51.196;7.074;2023-02-13T19:14:01;100813.22;;;11.72;56.62
19576;BME280;41589;51.196;7.074;2023-02-13T19:19:04;100816.19;;;11.65;56.91
19576;BME280;41589;51.196;7.074;2023-02-13T19:24:07;100812.13;;;11.66;56.73
19576;BME280;41589;51.196;7.074;2023-02-13T19:29:08;100815.31;;;11.68;56.95
19576;BME280;41589;51.196;7.074;2023-02-13T19:34:08;100822.28;;;11.60;56.95
19576;BME280;41589;51.196;7.074;2023-02-13T19:39:09;100822.47;;;11.49;57.26
19576;BME280;41589;51.196;7.074;2023-02-13T19:44:10;100828.66;;;11.41;57.32
19576;BME280;41589;51.196;7.074;2023-02-13T19:49:10;100827.44;;;11.42;57.67
19576;BME280;41589;51.196;7.074;2023-02-13T19:54:11;100839.69;;;11.32;57.75
19576;BME280;41589;51.196;7.074;2023-02-13T19:59:12;100834.03;;;11.32;57.65
19576;BME280;41589;51.196;7.074;2023-02-13T20:04:12;100836.19;;;11.24;57.66
19576;BME280;41589;51.196;7.074;2023-02-13T20:09:13;100832.19;;;11.21;58.09
19576;BME280;41589;51.196;7.074;2023-02-13T20:14:13;100834.56;;;11.23;58.00
19576;BME280;41589;51.196;7.074;2023-02-13T20:19:14;100833.91;;;11.12;57.75
19576;BME280;41589;51.196;7.074;2023-02-13T20:24:14;100831.88;;;11.12;58.51
19576;BME280;41589;51.196;7.074;2023-02-13T20:29:15;100827.59;;;11.04;58.45
19576;BME280;41589;51.196;7.074;2023-02-13T20:34:16;100823.28;;;10.96;58.35
19576;BME280;41589;51.196;7.074;2023-02-13T20:39:18;100827.78;;;10.90;58.86
19576;BME280;41589;51.196;7.074;2023-02-13T20:44:19;100825.47;;;10.85;58.71
19576;BME280;41589;51.196;7.074;2023-02-13T20:49:23;100821.06;;;10.84;58.96
19576;BME280;41589;51.196;7.074;2023-02-13T20:54:24;100821.88;;;10.81;59.20
19576;BME280;41589;51.196;7.074;2023-02-13T20:59:25;100826.78;;;10.77;59.13
19576;BME280;41589;51.196;7.074;2023-02-13T21:04:25;100820.34;;;10.76;59.25
19576;BME280;41589;51.196;7.074;2023-02-13T21:09:28;100812.84;;;10.66;59.31
19576;BME280;41589;51.196;7.074;2023-02-13T21:14:28;100809.75;;;10.57;59.53
19576;BME280;41589;51.196;7.074;2023-02-13T21:19:29;100823.91;;;10.50;59.95
19576;BME280;41589;51.196;7.074;2023-02-13T21:24:30;100825.53;;;10.47;60.07
19576;BME280;41589;51.196;7.074;2023-02-13T21:29:30;100818.75;;;10.45;60.14
19576;BME280;41589;51.196;7.074;2023-02-13T21:34:31;100808.78;;;10.36;60.49
19576;BME280;41589;51.196;7.074;2023-02-13T21:39:32;100821.28;;;10.35;60.51
19576;BME280;41589;51.196;7.074;2023-02-13T21:44:32;100823.03;;;10.22;60.61
19576;BME280;41589;51.196;7.074;2023-02-13T21:49:33;100822.66;;;10.20;60.73
19576;BME280;41589;51.196;7.074;2023-02-13T21:54:34;100825.13;;;10.14;60.70
19576;BME280;41589;51.196;7.074;2023-02-13T21:59:34;100807.53;;;10.07;60.71
19576;BME280;41589;51.196;7.074;2023-02-13T22:04:35;100815.16;;;10.06;60.86
19576;BME280;41589;51.196;7.074;2023-02-13T22:09:35;100810.81;;;9.98;61.03
19576;BME280;41589;51.196;7.074;2023-02-13T22:14:36;100808.00;;;10.02;60.88
19576;BME280;41589;51.196;7.074;2023-02-13T22:19:36;100809.28;;;9.94;60.88
19576;BME280;41589;51.196;7.074;2023-02-13T22:24:36;100809.34;;;9.87;60.60
19576;BME280;41589;51.196;7.074;2023-02-13T22:29:37;100807.41;;;9.76;60.81
19576;BME280;41589;51.196;7.074;2023-02-13T22:34:40;100796.16;;;9.76;61.04
19576;BME280;41589;51.196;7.074;2023-02-13T22:39:40;100804.22;;;9.74;60.68
19576;BME280;41589;51.196;7.074;2023-02-13T22:44:40;100811.06;;;9.73;60.74
19576;BME280;41589;51.196;7.074;2023-02-13T22:49:41;100810.78;;;9.61;60.74
19576;BME280;41589;51.196;7.074;2023-02-13T22:54:41;100809.59;;;9.58;60.91
19576;BME280;41589;51.196;7.074;2023-02-13T22:59:42;100810.78;;;9.61;60.47
19576;BME280;41589;51.196;7.074;2023-02-13T23:04:46;100803.25;;;9.50;60.70
19576;BME280;41589;51.196;7.074;2023-02-13T23:09:46;100800.44;;;9.50;60.55
19576;BME280;41589;51.196;7.074;2023-02-13T23:14:47;100799.28;;;9.44;60.35
19576;BME280;41589;51.196;7.074;2023-02-13T23:19:47;100813.00;;;9.35;60.70
19576;BME280;41589;51.196;7.074;2023-02-13T23:24:48;100801.44;;;9.26;60.49
19576;BME280;41589;51.196;7.074;2023-02-13T23:29:48;100796.22;;;9.24;60.54
19576;BME280;41589;51.196;7.074;2023-02-13T23:34:48;100802.22;;;9.30;60.35
19576;BME280;41589;51.196;7.074;2023-02-13T23:39:49;100821.88;;;9.30;60.72
19576;BME280;41589;51.196;7.074;2023-02-13T23:44:50;100811.91;;;9.22;60.55
19576;BME280;41589;51.196;7.074;2023-02-13T23:49:50;100815.59;;;9.15;60.59
19576;BME280;41589;51.196;7.074;2023-02-13T23:54:51;100816.34;;;9.19;60.65
19576;BME280;41589;51.196;7.074;2023-02-13T23:59:51;100813.56;;;9.12;60.54
